Time;durP1;ratioP1;P1;durP2;ratioP2;P2;SDS_P1;SDS_P2;PMS_P1;PMS_P2;Temp;Humidity;BMP_temperature;BMP_pressure;BME280_temperature;BME280_humidity;BME280_pressure;Samples;Min_cycle;Max_cycle;Signal;HPM_P1;HPM_P2
2023/07/08 00:01:20;;;;;;;7.82;2.63;;;;;;;19.75;52.69;99936.88;5042843;28;20585;-44
2023/07/08 00:03:47;;;;;;;5.38;2.70;;;;;;;19.76;52.70;99928.06;5042310;28;20652;-47
2023/07/08 00:06:21;;;;;;;6.47;3.45;;;;;;;19.76;52.55;99932.47;5042983;28;20128;-48
2023/07/08 00:08:49;;;;;;;6.43;2.88;;;;;;;19.76;52.14;99930.69;5038494;28;20137;-47
2023/07/08 00:11:16;;;;;;;3.75;2.55;;;;;;;19.76;52.32;99928.06;5041025;28;20056;-50
2023/07/08 00:13:43;;;;;;;5.60;2.63;;;;;;;19.77;52.62;99929.78;5044561;28;20128;-48
2023/07/08 00:16:14;;;;;;;6.85;3.30;;;;;;;19.76;52.79;99916.72;5040954;28;20145;-45
2023/07/08 00:18:41;;;;;;;6.43;3.20;;;;;;;19.74;52.47;99914.16;5045064;28;20091;-49
2023/07/08 00:21:14;;;;;;;6.30;2.35;;;;;;;19.72;52.28;99904.63;5040478;28;20052;-46
2023/07/08 00:23:46;;;;;;;7.10;3.05;;;;;;;19.68;52.46;99906.50;5042178;28;20156;-47
2023/07/08 00:28:54;;;;;;;7.93;5.72;;;;;;;19.66;52.65;99905.75;5053224;28;20387;-49
2023/07/08 00:31:23;;;;;;;7.80;4.15;;;;;;;19.64;53.06;99902.31;5038119;28;20053;-50
2023/07/08 00:33:55;;;;;;;9.35;5.82;;;;;;;19.61;52.44;99913.81;5038612;28;20087;-47
2023/07/08 00:36:24;;;;;;;6.55;4.28;;;;;;;19.58;52.71;99913.06;5047084;28;20045;-47
2023/07/08 00:38:51;;;;;;;9.55;4.82;;;;;;;19.55;53.03;99908.81;5044982;28;20045;-46
2023/07/08 00:43:57;;;;;;;5.63;3.65;;;;;;;19.52;52.90;99907.16;5097770;27;20398;-41
2023/07/08 00:51:43;;;;;;;5.43;2.80;;;;;;;19.38;52.88;99901.63;5028954;27;20400;-52
2023/07/08 00:54:13;;;;;;;6.72;2.95;;;;;;;19.38;52.96;99906.88;5018058;28;20053;-52
2023/07/08 00:57:02;;;;;;;5.53;2.47;;;;;;;19.34;53.48;99900.94;5014747;28;20077;-45
2023/07/08 01:02:08;;;;;;;6.18;3.05;;;;;;;19.26;53.55;99903.84;5050438;27;20387;-46
2023/07/08 01:04:43;;;;;;;8.38;3.35;;;;;;;19.24;53.74;99905.72;5022029;28;20076;-39
2023/07/08 01:07:11;;;;;;;7.05;3.55;;;;;;;19.22;53.67;99901.44;5021564;28;20049;-44
2023/07/08 01:09:43;;;;;;;7.22;3.10;;;;;;;19.19;53.84;99902.44;5016662;28;20715;-46
2023/07/08 01:12:15;;;;;;;6.65;4.03;;;;;;;19.17;53.52;99898.13;5020151;28;20045;-46
2023/07/08 01:14:43;;;;;;;6.88;3.17;;;;;;;19.12;53.92;99903.59;5016069;28;20042;-46
2023/07/08 01:17:13;;;;;;;8.32;3.05;;;;;;;19.10;53.74;99901.03;5015546;28;20077;-45
2023/07/08 01:19:42;;;;;;;7.13;3.15;;;;;;;19.08;53.50;99899.38;5022527;28;20140;-46
2023/07/08 01:22:09;;;;;;;8.77;3.30;;;;;;;19.07;54.20;99902.91;5020731;28;20056;-45
2023/07/08 01:24:40;;;;;;;7.38;3.65;;;;;;;19.05;53.86;99899.47;5017025;28;20045;-48
2023/07/08 01:27:13;;;;;;;7.45;4.22;;;;;;;19.00;54.28;99897.88;5017270;28;20453;-49
2023/07/08 01:29:39;;;;;;;9.07;3.60;;;;;;;18.96;54.27;99904.19;5012293;28;20041;-44
2023/07/08 01:32:07;;;;;;;5.80;3.78;;;;;;;18.93;53.89;99896.44;5017426;28;20048;-49
2023/07/08 01:34:35;;;;;;;5.95;3.17;;;;;;;18.90;54.20;99901.78;5023949;28;20136;-46
2023/07/08 01:37:05;;;;;;;8.93;3.70;;;;;;;18.85;54.83;99901.13;5020065;28;20049;-47
2023/07/08 01:39:32;;;;;;;;;;;;;;;18.59;55.42;99892.50;5020086;28;20050;-43
2023/07/08 01:41:59;;;;;;;6.75;4.43;;;;;;;18.72;54.37;99888.50;5019268;28;20344;-48
2023/07/08 01:44:29;;;;;;;9.35;4.20;;;;;;;18.70;54.35;99887.69;5017426;28;20052;-44
2023/07/08 01:47:05;;;;;;;6.70;2.92;;;;;;;18.64;55.24;99885.31;5012172;28;20053;-50
2023/07/08 01:49:35;;;;;;;7.80;3.85;;;;;;;18.62;54.60;99895.03;5022880;28;20057;-45
2023/07/08 01:52:03;;;;;;;6.50;3.95;;;;;;;18.58;55.29;99878.53;5015667;28;20049;-50
2023/07/08 01:54:30;;;;;;;6.65;3.30;;;;;;;18.58;55.37;99880.31;5020237;28;20080;-44
2023/07/08 01:56:57;;;;;;;6.45;3.38;;;;;;;18.59;55.57;99879.38;5017817;28;20191;-47
2023/07/08 01:59:24;;;;;;;6.25;3.60;;;;;;;18.57;55.57;99879.44;5022758;28;20556;-49
2023/07/08 02:01:54;;;;;;;7.15;3.50;;;;;;;18.57;54.86;99866.34;5022322;28;20050;-45
2023/07/08 02:04:23;;;;;;;5.97;3.45;;;;;;;18.56;55.50;99872.50;5014809;28;20046;-47
2023/07/08 02:06:59;;;;;;;7.80;3.67;;;;;;;18.52;55.60;99875.28;5014381;28;20073;-43
2023/07/08 02:09:27;;;;;;;5.15;3.20;;;;;;;18.55;55.51;99875.19;5020850;28;20073;-46
2023/07/08 02:11:53;;;;;;;6.68;3.60;;;;;;;18.52;55.78;99870.06;5016052;28;20081;-44
2023/07/08 02:14:20;;;;;;;7.10;4.22;;;;;;;18.48;55.71;99862.28;5007255;28;20052;-43
2023/07/08 02:16:47;;;;;;;8.02;3.47;;;;;;;18.48;55.89;99859.66;5009561;28;20088;-49
2023/07/08 02:19:14;;;;;;;6.30;3.42;;;;;;;18.44;55.57;99858.09;5009029;28;20674;-44
2023/07/08 02:21:40;;;;;;;8.15;3.78;;;;;;;18.43;55.71;99853.75;4991082;28;20546;-44
2023/07/08 02:24:07;;;;;;;6.93;3.70;;;;;;;18.42;55.82;99854.69;4983959;28;20046;-49
2023/07/08 02:26:34;;;;;;;7.07;3.15;;;;;;;18.39;56.10;99852.19;4989126;28;20680;-54
2023/07/08 02:29:01;;;;;;;8.18;3.83;;;;;;;18.36;55.90;99849.66;4989389;28;20105;-43
2023/07/08 02:31:27;;;;;;;6.43;3.55;;;;;;;18.33;55.60;99844.53;4988129;28;20407;-41
2023/07/08 02:33:54;;;;;;;8.23;3.70;;;;;;;18.31;55.83;99846.38;4988777;28;20085;-46
2023/07/08 02:36:21;;;;;;;8.40;3.85;;;;;;;18.30;55.69;99839.44;4987110;28;20050;-44
2023/07/08 02:38:48;;;;;;;8.13;3.67;;;;;;;18.27;56.30;99829.06;4988579;28;20128;-49
2023/07/08 02:41:15;;;;;;;9.85;4.03;;;;;;;18.24;56.71;99830.88;4988755;28;20058;-47
2023/07/08 02:43:41;;;;;;;8.93;4.07;;;;;;;18.22;56.15;99832.72;4987089;28;20580;-44
2023/07/08 02:46:08;;;;;;;6.97;3.75;;;;;;;18.20;56.81;99829.28;4988516;28;20077;-46
2023/07/08 02:48:35;;;;;;;8.88;4.55;;;;;;;18.19;56.42;99830.19;4988835;28;20057;-47
2023/07/08 02:51:03;;;;;;;6.28;3.55;;;;;;;18.17;56.45;99824.16;4986946;28;20047;-44
2023/07/08 02:53:30;;;;;;;7.18;3.58;;;;;;;18.14;57.01;99829.53;4987108;28;20049;-43
2023/07/08 02:55:57;;;;;;;6.65;3.40;;;;;;;18.12;56.63;99831.34;4985834;28;20489;-45
2023/07/08 02:58:24;;;;;;;6.93;3.67;;;;;;;18.09;56.86;99836.69;4988401;28;20721;-49
2023/07/08 03:00:53;;;;;;;8.68;3.88;;;;;;;18.06;57.05;99836.78;4987818;28;20512;-48
2023/07/08 03:03:21;;;;;;;9.00;3.35;;;;;;;18.01;57.41;99830.84;4971292;28;20042;-47
2023/07/08 03:05:58;;;;;;;6.93;3.53;;;;;;;17.95;57.11;99830.19;4987686;28;20050;-42
2023/07/08 03:08:26;;;;;;;9.40;4.30;;;;;;;17.97;57.04;99833.59;4987966;28;20054;-44
2023/07/08 03:11:01;;;;;;;11.70;4.28;;;;;;;17.98;57.45;99834.44;4987838;28;20042;-39
2023/07/08 03:13:29;;;;;;;6.82;3.95;;;;;;;17.98;57.60;99834.44;5004418;28;20696;-51
2023/07/08 03:15:59;;;;;;;7.82;4.32;;;;;;;17.98;57.31;99831.84;5010062;28;20054;-45
2023/07/08 03:18:26;;;;;;;7.50;4.72;;;;;;;17.97;57.67;99827.50;5006254;28;20050;-46
2023/07/08 03:20:55;;;;;;;9.18;4.80;;;;;;;17.95;57.63;99839.81;5000891;28;20379;-48
2023/07/08 03:23:24;;;;;;;7.35;4.95;;;;;;;17.92;57.67;99840.78;4996996;28;20430;-44
2023/07/08 03:25:52;;;;;;;7.88;3.70;;;;;;;17.90;57.33;99841.75;4990503;28;20261;-51
2023/07/08 03:28:18;;;;;;;8.35;3.97;;;;;;;17.88;58.48;99835.69;4999637;28;20042;-45
2023/07/08 03:30:51;;;;;;;10.50;4.10;;;;;;;17.86;57.97;99838.38;5001458;28;20050;-45
2023/07/08 03:33:18;;;;;;;7.82;3.97;;;;;;;17.84;58.27;99827.09;5006921;28;20052;-46
2023/07/08 03:35:45;;;;;;;8.20;4.05;;;;;;;17.84;58.57;99837.59;5006686;28;20562;-43
2023/07/08 03:38:12;;;;;;;8.68;3.88;;;;;;;17.81;58.09;99832.44;5006181;28;20041;-50
2023/07/08 03:40:38;;;;;;;7.28;4.15;;;;;;;17.81;58.66;99835.06;5004231;28;20054;-45
2023/07/08 03:43:05;;;;;;;10.60;3.85;;;;;;;17.80;58.40;99841.22;5006728;28;20525;-46
2023/07/08 03:45:31;;;;;;;9.77;4.32;;;;;;;17.82;58.73;99834.16;5004509;28;20041;-49
2023/07/08 03:47:58;;;;;;;7.32;4.45;;;;;;;17.85;58.40;99834.03;5002282;28;20098;-42
2023/07/08 03:50:25;;;;;;;8.35;4.72;;;;;;;17.88;58.33;99820.84;5004091;28;20053;-45
2023/07/08 03:52:55;;;;;;;7.55;3.97;;;;;;;17.91;58.80;99823.34;5006028;28;20057;-50
2023/07/08 03:55:22;;;;;;;7.18;5.00;;;;;;;17.92;58.75;99851.25;5005925;28;20401;-47
2023/07/08 03:57:49;;;;;;;12.90;4.75;;;;;;;17.90;59.35;99858.31;5001167;28;20049;-44
2023/07/08 04:00:15;;;;;;;13.85;4.88;;;;;;;17.86;60.09;99815.66;5006893;28;20050;-44
2023/07/08 04:02:44;;;;;;;8.48;4.45;;;;;;;17.86;60.28;99814.78;5006937;28;20052;-48
2023/07/08 04:05:15;;;;;;;8.60;4.40;;;;;;;17.86;60.29;99820.03;5000351;28;20069;-42
2023/07/08 04:07:42;;;;;;;7.50;3.55;;;;;;;17.81;60.06;99807.13;5006450;28;20132;-40
2023/07/08 04:10:10;;;;;;;9.02;4.85;;;;;;;17.80;60.41;99810.63;5006769;28;20712;-44
2023/07/08 04:12:37;;;;;;;8.02;4.03;;;;;;;17.78;61.30;99804.59;5006627;28;20513;-42
2023/07/08 04:15:05;;;;;;;9.80;5.03;;;;;;;17.77;61.32;99808.16;5006904;28;20048;-49
2023/07/08 04:17:32;;;;;;;9.57;5.03;;;;;;;17.76;62.00;99813.44;5006007;28;20045;-42
2023/07/08 04:20:01;;;;;;;10.13;4.90;;;;;;;17.75;60.93;99804.72;5005562;28;20049;-42
2023/07/08 04:22:27;;;;;;;10.98;4.68;;;;;;;17.77;61.25;99807.28;4998645;28;20048;-47
2023/07/08 04:24:55;;;;;;;8.93;5.20;;;;;;;17.77;61.16;99809.91;5001898;28;20506;-49
2023/07/08 04:27:21;;;;;;;8.25;5.03;;;;;;;17.78;62.30;99806.38;5005410;28;20049;-46
2023/07/08 04:29:48;;;;;;;7.95;4.30;;;;;;;17.77;62.43;99804.66;5006957;28;20046;-48
2023/07/08 04:32:15;;;;;;;9.48;4.50;;;;;;;17.77;61.46;99805.53;5006642;28;20058;-50
2023/07/08 04:34:41;;;;;;;10.02;4.47;;;;;;;17.78;62.07;99822.06;5007123;28;20046;-43
2023/07/08 04:37:12;;;;;;;9.13;4.35;;;;;;;17.81;62.32;99821.97;5003973;28;20057;-49
2023/07/08 04:39:38;;;;;;;10.55;5.28;;;;;;;17.83;62.50;99812.28;4982357;28;20061;-51
2023/07/08 04:42:05;;;;;;;11.38;4.97;;;;;;;17.85;61.98;99818.31;4985477;28;20046;-47
2023/07/08 04:44:32;;;;;;;8.20;4.57;;;;;;;17.89;61.63;99829.53;4984938;28;20053;-50
2023/07/08 04:47:00;;;;;;;11.77;4.20;;;;;;;17.92;62.29;99819.81;4983496;28;20057;-43
2023/07/08 04:49:33;;;;;;;10.77;5.50;;;;;;;17.91;62.24;99823.34;4987115;28;20050;-42
2023/07/08 04:52:01;;;;;;;8.35;3.65;;;;;;;17.93;61.94;99804.97;4982587;28;20042;-47
2023/07/08 04:54:29;;;;;;;8.93;4.15;;;;;;;17.91;62.40;99812.88;4985078;28;20046;-46
2023/07/08 04:56:55;;;;;;;10.10;4.93;;;;;;;17.91;62.59;99812.88;4984641;28;20054;-43
2023/07/08 04:59:24;;;;;;;8.60;5.25;;;;;;;17.92;62.77;99813.72;4983345;28;21049;-48
2023/07/08 05:01:52;;;;;;;10.43;5.03;;;;;;;17.94;62.44;99807.50;4988581;28;20049;-45
2023/07/08 05:04:21;;;;;;;8.70;3.83;;;;;;;17.97;63.01;99806.56;4986810;28;20269;-46
2023/07/08 05:06:48;;;;;;;9.88;4.80;;;;;;;17.97;62.19;99814.41;4985375;28;20082;-51
2023/07/08 05:09:15;;;;;;;10.23;4.43;;;;;;;17.97;62.42;99812.63;4986759;28;20046;-50
2023/07/08 05:11:43;;;;;;;10.73;4.90;;;;;;;17.95;62.66;99810.97;4984819;28;20130;-43
2023/07/08 05:14:12;;;;;;;9.65;5.65;;;;;;;17.96;62.11;99807.44;4985449;28;20601;-45
2023/07/08 05:16:40;;;;;;;7.60;4.03;;;;;;;17.94;62.55;99809.28;4985934;28;20054;-49
2023/07/08 05:19:07;;;;;;;7.82;4.60;;;;;;;17.94;62.74;99812.72;4985908;28;20534;-46
2023/07/08 05:21:34;;;;;;;9.13;3.58;;;;;;;17.95;63.02;99824.94;4975306;28;20075;-46
2023/07/08 05:24:03;;;;;;;8.30;3.90;;;;;;;17.97;62.84;99835.38;4981582;28;20133;-43
2023/07/08 05:26:30;;;;;;;7.15;4.15;;;;;;;17.98;61.86;99832.69;4985196;28;20061;-47
2023/07/08 05:28:56;;;;;;;9.00;4.88;;;;;;;18.03;62.43;99847.41;4986643;28;20062;-46
2023/07/08 05:31:23;;;;;;;11.23;5.05;;;;;;;18.09;63.10;99847.19;4986636;28;20046;-47
2023/07/08 05:34:07;;;;;;;8.50;4.45;;;;;;;18.20;63.53;99845.00;4986205;28;20052;-45
2023/07/08 05:36:34;;;;;;;9.35;4.32;;;;;;;18.29;63.71;99837.69;4986327;28;20523;-43
2023/07/08 05:39:01;;;;;;;9.13;3.90;;;;;;;18.40;63.26;99830.28;4986726;28;20422;-46
2023/07/08 05:41:27;;;;;;;8.77;3.90;;;;;;;18.52;63.01;99835.97;4986221;28;20050;-43
2023/07/08 05:43:54;;;;;;;11.07;5.15;;;;;;;18.62;62.76;99842.56;4985103;28;20047;-44
2023/07/08 05:46:21;;;;;;;10.35;4.85;;;;;;;18.75;63.54;99845.56;4986191;28;20054;-46
2023/07/08 05:48:48;;;;;;;10.73;3.90;;;;;;;18.87;63.78;99850.28;4989652;28;20057;-49
2023/07/08 05:51:15;;;;;;;9.85;4.25;;;;;;;18.99;63.47;99848.91;4994547;28;20524;-49
2023/07/08 05:53:42;;;;;;;9.30;4.47;;;;;;;19.15;63.31;99848.31;5005929;28;20124;-46
2023/07/08 05:56:09;;;;;;;9.10;4.32;;;;;;;19.29;63.58;99839.03;5006543;28;20125;-48
2023/07/08 05:58:35;;;;;;;10.10;4.80;;;;;;;19.44;63.22;99848.88;5002474;28;20068;-45
2023/07/08 06:01:02;;;;;;;9.15;4.10;;;;;;;19.61;63.29;99849.91;5006707;28;20077;-53
2023/07/08 06:03:29;;;;;;;8.35;3.88;;;;;;;19.76;63.64;99843.97;5008332;28;20108;-44
2023/07/08 06:05:56;;;;;;;8.80;3.60;;;;;;;19.91;62.89;99845.06;5007302;28;20279;-42
2023/07/08 06:08:23;;;;;;;9.15;4.10;;;;;;;20.08;62.95;99847.88;5008340;28;20061;-44
2023/07/08 06:10:50;;;;;;;6.90;4.00;;;;;;;20.21;63.38;99859.53;5003154;28;20056;-47
2023/07/08 06:13:17;;;;;;;6.57;3.95;;;;;;;20.36;62.88;99863.22;5006754;28;20057;-50
2023/07/08 06:15:44;;;;;;;8.98;3.65;;;;;;;20.50;62.76;99854.69;5008681;28;20053;-45
2023/07/08 06:18:11;;;;;;;8.23;3.60;;;;;;;20.64;62.36;99855.81;5008895;28;20564;-45
2023/07/08 06:20:37;;;;;;;7.03;3.20;;;;;;;20.76;62.62;99876.28;5007602;28;20244;-40
2023/07/08 06:23:04;;;;;;;7.63;3.80;;;;;;;20.91;62.56;99871.22;5006517;28;20112;-44
2023/07/08 06:25:32;;;;;;;7.07;3.38;;;;;;;21.06;62.17;99867.84;5004780;28;20069;-45
2023/07/08 06:27:59;;;;;;;7.45;3.75;;;;;;;21.21;62.62;99869.78;5007213;28;20054;-49
2023/07/08 06:30:26;;;;;;;5.93;3.50;;;;;;;21.34;62.04;99876.13;5008277;28;20038;-44
2023/07/08 06:32:53;;;;;;;6.88;3.60;;;;;;;21.50;62.44;99870.06;5008475;28;20068;-41
2023/07/08 06:35:19;;;;;;;11.93;3.50;;;;;;;21.63;61.81;99865.03;5002805;28;20132;-47
2023/07/08 06:37:46;;;;;;;5.20;3.38;;;;;;;21.78;60.90;99864.25;5007256;28;20054;-48
2023/07/08 06:40:13;;;;;;;8.02;3.40;;;;;;;21.96;61.25;99861.56;5007937;28;20052;-46
2023/07/08 06:42:39;;;;;;;8.88;3.45;;;;;;;22.15;61.21;99871.13;5007904;28;20050;-50
2023/07/08 06:45:06;;;;;;;7.78;3.25;;;;;;;22.33;60.69;99875.38;5008198;28;20075;-51
2023/07/08 06:47:33;;;;;;;6.75;3.45;;;;;;;22.53;61.05;99859.41;5005721;28;20049;-44
2023/07/08 06:50:00;;;;;;;6.63;3.25;;;;;;;22.66;60.08;99864.88;5006534;28;20544;-48
2023/07/08 06:52:26;;;;;;;6.43;3.70;;;;;;;22.84;60.04;99874.38;4999756;28;20038;-49
2023/07/08 06:54:53;;;;;;;10.52;3.85;;;;;;;23.06;59.85;99878.41;5007996;28;20050;-42
2023/07/08 06:57:20;;;;;;;8.40;3.35;;;;;;;23.32;59.43;99873.41;5002939;28;20060;-47
2023/07/08 06:59:46;;;;;;;7.10;3.53;;;;;;;23.61;59.27;99872.66;5007675;28;20042;-52
2023/07/08 07:02:13;;;;;;;5.90;3.03;;;;;;;23.90;59.06;99877.06;5005181;28;20533;-46
2023/07/08 07:04:40;;;;;;;6.78;3.40;;;;;;;24.21;58.67;99884.00;5004109;28;20053;-46
2023/07/08 07:07:07;;;;;;;7.18;3.42;;;;;;;24.43;56.74;99890.56;5001761;28;20052;-44
2023/07/08 07:09:33;;;;;;;6.63;3.65;;;;;;;24.58;56.98;99886.09;5006824;28;20056;-47
2023/07/08 07:12:00;;;;;;;7.72;3.67;;;;;;;24.69;56.10;99895.16;5002507;28;20050;-55
2023/07/08 07:14:27;;;;;;;6.55;3.15;;;;;;;24.75;56.37;99894.72;5004856;28;20042;-44
2023/07/08 07:16:56;;;;;;;9.90;3.20;;;;;;;24.71;55.69;99893.22;5007697;28;20057;-49
2023/07/08 07:19:34;;;;;;;9.30;3.70;;;;;;;24.57;55.64;99902.94;5001281;28;20483;-46
2023/07/08 07:22:01;;;;;;;7.13;3.83;;;;;;;24.37;55.36;99902.41;5002649;28;20050;-48
2023/07/08 07:24:28;;;;;;;7.80;3.75;;;;;;;24.21;55.82;99906.97;5000424;28;20062;-46
2023/07/08 07:26:55;;;;;;;7.93;4.85;;;;;;;24.08;55.64;99907.69;4997370;28;20069;-53
2023/07/08 07:29:23;;;;;;;6.90;4.28;;;;;;;24.07;55.82;99900.69;4987529;28;20073;-45
2023/07/08 07:31:51;;;;;;;7.50;3.72;;;;;;;24.07;55.62;99899.84;4986762;28;20112;-43
2023/07/08 07:34:18;;;;;;;10.88;4.05;;;;;;;24.08;55.88;99897.09;4985062;28;20056;-50
2023/07/08 07:36:45;;;;;;;7.88;4.32;;;;;;;24.09;55.71;99898.81;4985470;28;20506;-44
2023/07/08 07:39:12;;;;;;;11.48;4.00;;;;;;;24.24;55.90;99885.59;4987556;28;20129;-47
2023/07/08 07:41:38;;;;;;;8.27;3.58;;;;;;;24.47;56.45;99886.78;4985868;28;20050;-47
2023/07/08 07:44:05;;;;;;;10.88;5.00;;;;;;;24.81;56.33;99894.34;4986159;28;20046;-44
2023/07/08 07:46:31;;;;;;;6.57;3.85;;;;;;;25.19;55.99;99908.69;4986957;28;20050;-46
2023/07/08 07:48:58;;;;;;;6.47;3.65;;;;;;;25.50;55.81;99917.22;4985878;28;20053;-52
2023/07/08 07:51:25;;;;;;;6.78;3.85;;;;;;;25.79;55.21;99921.50;4991820;28;20049;-44
2023/07/08 07:53:52;;;;;;;8.32;3.50;;;;;;;25.91;54.74;99919.81;5004031;28;20056;-47
2023/07/08 07:56:19;;;;;;;9.95;3.55;;;;;;;25.86;53.92;99927.22;5002126;28;20660;-46
2023/07/08 07:58:46;;;;;;;7.95;4.43;;;;;;;25.78;53.87;99925.13;5002197;28;20608;-47
2023/07/08 08:01:13;;;;;;;8.35;3.97;;;;;;;25.65;53.78;99925.97;5002195;28;20046;-44
2023/07/08 08:03:40;;;;;;;8.48;3.55;;;;;;;25.59;54.23;99921.09;5006886;28;20057;-51
2023/07/08 08:06:06;;;;;;;7.38;3.92;;;;;;;25.53;54.50;99927.63;5005985;28;20141;-49
2023/07/08 08:08:33;;;;;;;7.00;3.58;;;;;;;25.50;54.22;99927.00;5005209;28;20049;-45
2023/07/08 08:11:03;;;;;;;6.72;3.67;;;;;;;25.44;53.70;99927.38;4996838;28;20061;-46
2023/07/08 08:13:30;;;;;;;7.63;3.50;;;;;;;25.37;54.23;99938.41;4987115;28;20042;-49
2023/07/08 08:15:58;;;;;;;7.88;3.55;;;;;;;25.36;54.17;99936.69;4982845;28;20081;-50
2023/07/08 08:18:25;;;;;;;10.77;4.07;;;;;;;25.34;54.23;99937.75;4984352;28;20046;-46
2023/07/08 08:20:52;;;;;;;6.50;3.45;;;;;;;25.27;54.15;99942.63;4986641;28;20046;-47
2023/07/08 08:23:19;;;;;;;7.82;4.28;;;;;;;25.24;54.18;99940.19;4984161;28;20050;-45
2023/07/08 08:25:45;;;;;;;7.70;3.22;;;;;;;25.22;54.29;99950.03;4987212;28;20478;-51
2023/07/08 08:28:12;;;;;;;7.68;4.70;;;;;;;25.18;54.40;99953.81;4986597;28;20511;-43
2023/07/08 08:30:39;;;;;;;9.75;3.97;;;;;;;25.10;54.00;99952.56;4986016;28;20050;-50
2023/07/08 08:33:06;;;;;;;10.30;3.33;;;;;;;25.07;54.87;99955.41;4986261;28;20058;-50
2023/07/08 08:35:32;;;;;;;10.95;4.60;;;;;;;25.03;54.60;99961.84;4986825;28;20456;-46
2023/07/08 08:37:59;;;;;;;6.20;3.67;;;;;;;25.00;54.86;99975.28;4986610;28;20137;-43
2023/07/08 08:40:26;;;;;;;7.32;3.40;;;;;;;24.96;54.91;99960.53;4987160;28;20054;-47
2023/07/08 08:42:59;;;;;;;5.53;2.80;;;;;;;24.93;54.72;99971.34;4986250;28;20050;-51
2023/07/08 08:45:27;;;;;;;6.85;3.80;;;;;;;24.88;55.20;99964.53;4986945;28;20046;-47
2023/07/08 08:48:00;;;;;;;6.18;3.30;;;;;;;24.87;55.35;99962.84;4982745;28;20085;-48
2023/07/08 08:53:08;;;;;;;9.50;5.30;;;;;;;24.94;55.73;99946.53;5072825;27;20380;-47
2023/07/08 08:55:35;;;;;;;8.35;4.88;;;;;;;25.00;55.27;99946.16;5023638;28;20065;-43
2023/07/08 09:06:16;;;;;;;11.05;5.18;;;;;;;25.87;56.42;99956.31;5085664;27;20976;-48
2023/07/08 09:08:43;;;;;;;9.02;5.95;;;;;;;26.08;55.28;99963.75;5063702;28;20049;-50
2023/07/08 09:13:58;;;;;;;8.10;3.95;;;;;;;25.99;55.14;99985.59;5063881;27;20885;-42
2023/07/08 09:16:38;;;;;;;7.88;3.72;;;;;;;25.92;54.71;99991.34;5020956;28;20072;-41
2023/07/08 09:19:12;;;;;;;10.80;3.85;;;;;;;25.93;55.50;99993.03;5019565;28;20136;-52
2023/07/08 09:27:18;;;;;;;6.75;3.67;;;;;;;26.36;54.61;100036.19;5076561;27;20411;-50
2023/07/08 09:29:45;;;;;;;8.07;3.03;;;;;;;26.34;54.24;100064.63;5048160;28;20048;-50
2023/07/08 09:37:32;;;;;;;6.10;3.25;;;;;;;25.89;52.60;100123.34;5020528;27;20397;-51
2023/07/08 09:40:03;;;;;;;4.90;2.78;;;;;;;25.73;52.14;100128.81;5006163;28;20072;-49
2023/07/08 09:42:33;;;;;;;7.18;2.38;;;;;;;25.63;52.08;100140.00;5003302;28;20050;-48
2023/07/08 09:45:10;;;;;;;5.25;2.05;;;;;;;25.56;52.27;100151.09;4999939;28;20050;-51
2023/07/08 09:47:40;;;;;;;4.70;2.13;;;;;;;25.47;52.16;100136.63;4991682;28;20050;-45
2023/07/08 09:50:18;;;;;;;5.03;2.22;;;;;;;25.36;51.79;100127.56;4999979;28;20069;-43
2023/07/08 09:52:46;;;;;;;7.75;3.47;;;;;;;25.30;53.08;100133.28;4997752;28;20042;-57
2023/07/08 09:55:13;;;;;;;9.95;4.18;;;;;;;25.20;53.61;100129.50;4997793;28;20054;-48
2023/07/08 09:57:40;;;;;;;5.97;3.45;;;;;;;25.08;54.34;100112.56;4998699;28;20141;-49
2023/07/08 10:00:11;;;;;;;8.55;5.38;;;;;;;25.02;54.13;100092.59;4998284;28;20458;-51
2023/07/08 10:02:44;;;;;;;6.57;3.13;;;;;;;25.02;54.26;100066.09;4999824;28;20084;-48
2023/07/08 10:05:17;;;;;;;5.38;2.53;;;;;;;25.02;54.34;100050.19;5000396;28;20073;-41
2023/07/08 10:07:45;;;;;;;6.22;1.67;;;;;;;25.00;53.87;100030.94;5004850;28;20046;-52
2023/07/08 10:10:17;;;;;;;4.30;1.60;;;;;;;24.99;54.68;100045.97;4992731;28;20049;-46
2023/07/08 10:12:55;;;;;;;4.95;1.98;;;;;;;24.99;54.68;100051.25;4999089;28;20054;-52
2023/07/08 10:15:28;;;;;;;3.95;1.73;;;;;;;25.10;55.01;100052.38;4997213;28;20061;-43
2023/07/08 10:17:55;;;;;;;5.57;2.70;;;;;;;25.22;55.20;100050.72;5006595;28;20042;-46
2023/07/08 10:20:23;;;;;;;3.15;1.75;;;;;;;25.39;55.38;100042.53;4999664;28;20045;-45
2023/07/08 10:25:39;;;;;;;5.20;2.83;;;;;;;25.83;55.04;100066.22;5045848;28;20377;-44
2023/07/08 10:31:11;;;;;;;4.95;2.47;;;;;;;26.54;56.17;100102.22;5058379;27;20765;-46
2023/07/08 10:56:11;;;;;;;6.07;3.85;;;;;;;28.79;51.28;100133.81;5099966;27;20388;-50
2023/07/08 11:04:45;;;;;;;6.93;2.75;;;;;;;28.92;49.15;100107.94;5079616;27;20394;-49
2023/07/08 11:07:30;;;;;;;4.65;2.38;;;;;;;28.99;50.02;100126.97;5019413;28;20054;-44
2023/07/08 11:10:01;;;;;;;4.75;2.15;;;;;;;29.05;49.86;100128.28;5018042;28;20065;-42
2023/07/08 11:12:36;;;;;;;4.75;2.05;;;;;;;29.06;49.03;100141.50;5017295;28;20568;-49
2023/07/08 11:15:15;;;;;;;7.47;2.72;;;;;;;29.02;48.74;100145.38;5019747;28;20057;-46
2023/07/08 11:20:37;;;;;;;4.90;3.97;;;;;;;28.73;48.10;100162.66;5052354;27;20403;-48
2023/07/08 11:23:16;;;;;;;5.95;3.25;;;;;;;28.65;49.02;100156.22;5018676;28;20068;-47
2023/07/08 11:25:44;;;;;;;5.72;4.38;;;;;;;28.60;49.05;100151.25;5017813;28;20100;-44
2023/07/08 11:28:18;;;;;;;7.07;4.03;;;;;;;28.54;48.94;100162.41;5019405;28;20180;-44
2023/07/08 11:30:48;;;;;;;4.80;2.88;;;;;;;28.55;48.13;100169.41;5019135;28;20049;-52
2023/07/08 11:33:18;;;;;;;8.10;4.50;;;;;;;28.51;48.63;100173.28;5004968;28;20058;-44
2023/07/08 11:35:50;;;;;;;5.72;3.80;;;;;;;28.43;49.07;100188.03;5003101;28;20068;-50
2023/07/08 11:38:20;;;;;;;4.70;3.45;;;;;;;28.35;48.37;100193.09;5001701;28;20494;-47
2023/07/08 11:41:11;;;;;;;5.90;3.65;;;;;;;28.26;48.56;100193.78;5002164;28;20057;-46
2023/07/08 11:43:47;;;;;;;7.30;3.55;;;;;;;28.10;48.55;100218.88;5001605;28;20049;-46
2023/07/08 11:46:19;;;;;;;6.40;2.75;;;;;;;27.89;48.70;100211.50;5002636;28;20054;-51
2023/07/08 11:48:52;;;;;;;5.93;3.75;;;;;;;27.61;48.71;100210.84;5001526;28;20054;-46
2023/07/08 11:51:24;;;;;;;5.78;3.83;;;;;;;27.33;49.22;100204.84;4999851;28;20080;-47
2023/07/08 11:54:01;;;;;;;4.10;3.25;;;;;;;26.99;49.14;100207.22;4998463;28;20084;-46
2023/07/08 11:56:28;;;;;;;6.57;3.30;;;;;;;26.73;49.85;100207.19;5001889;28;20077;-50
2023/07/08 11:59:17;;;;;;;8.32;3.70;;;;;;;26.36;50.74;100208.75;5001740;28;20053;-43
2023/07/08 12:04:32;;;;;;;6.00;2.00;;;;;;;26.11;51.53;100212.16;5063265;28;20417;-48
2023/07/08 12:09:47;;;;;;;6.03;1.90;;;;;;;25.83;52.00;100198.88;5018440;28;20402;-46
2023/07/08 12:12:22;;;;;;;6.00;2.15;;;;;;;25.70;52.62;100195.31;4983442;28;20058;-50
2023/07/08 12:14:49;;;;;;;;;;;;;;;25.34;53.54;100203.69;4981107;28;20462;-46
2023/07/08 12:17:16;;;;;;;5.50;2.33;;;;;;;25.41;53.71;100205.00;4982702;28;19930;-48
2023/07/08 12:19:47;;;;;;;5.78;2.47;;;;;;;25.25;53.72;100204.25;4984325;28;20661;-48
2023/07/08 12:22:13;;;;;;;5.78;2.40;;;;;;;25.06;54.10;100194.78;4983217;28;20142;-47
2023/07/08 12:24:41;;;;;;;5.00;2.03;;;;;;;24.98;54.42;100181.16;4983419;28;20101;-44
2023/07/08 12:27:10;;;;;;;6.53;1.85;;;;;;;24.89;55.07;100183.44;4983530;28;20057;-45
2023/07/08 12:29:37;;;;;;;7.18;2.10;;;;;;;24.81;54.61;100169.78;4989491;28;20050;-50
2023/07/08 12:32:05;;;;;;;4.50;1.50;;;;;;;24.63;54.68;100167.28;4985839;28;20057;-44
2023/07/08 12:34:33;;;;;;;5.85;2.03;;;;;;;24.51;55.54;100170.69;5015214;28;20061;-47
2023/07/08 12:37:00;;;;;;;6.72;1.67;;;;;;;24.42;56.42;100163.28;4983634;28;20054;-43
2023/07/08 12:39:32;;;;;;;7.85;3.08;;;;;;;24.47;56.64;100162.06;4981707;28;20066;-48
2023/07/08 12:41:59;;;;;;;10.43;3.38;;;;;;;24.57;56.73;100149.13;4984238;28;20553;-50
2023/07/08 12:44:26;;;;;;;7.65;3.17;;;;;;;24.67;56.83;100130.03;4982352;28;20058;-51
2023/07/08 12:46:54;;;;;;;8.23;3.55;;;;;;;24.75;57.01;100111.88;4984644;28;20051;-50
2023/07/08 12:49:26;;;;;;;8.43;3.90;;;;;;;24.76;56.73;100124.19;5014319;28;20054;-49
2023/07/08 12:51:53;;;;;;;11.43;5.43;;;;;;;24.76;56.91;100129.50;4982926;28;20047;-50
2023/07/08 12:54:20;;;;;;;6.90;3.17;;;;;;;24.75;57.18;100122.47;4980615;28;20049;-49
2023/07/08 12:56:46;;;;;;;5.63;3.22;;;;;;;24.74;57.34;100115.47;5014273;28;20395;-42
2023/07/08 12:59:20;;;;;;;5.82;2.22;;;;;;;24.71;57.00;100115.66;4986015;28;20050;-45